CMA CGM Thalassa — 5BNE2 — position and weather

sailwx.info

Track history (hours):
 
Tides and Currents Weather Stations Pressure Air Temp Water Temp Dewpoint Dewpoint Depression Visibility Wind Speed Wind Dir Waves Ship Positions

CMA CGM Thalassa

Last reported at 2016-Sep-17 04:15 UTC. Time now 2016-Sep-29 23:49 UTC.
Position N 34°57' W 135°51'.
Warning: this ship's position is 12 days out of date.

Length 347 m; draft 10.7 m.

Type: Ship (hazmat cat A). MMSI: 212151000.

Date/timePositionNaut miles runAvg speedWind from/ knotsBaromVisibWave heightAir tempDewpointWater temp
2016-Sep-17 04:15N 34°57' W 135°51'16112.5
2016-Sep-16 15:18N 35°26' W 132°37'6411.1
2016-Sep-16 09:33N 35°40' W 131°21'2311.1
2016-Sep-16 07:27N 35°45' W 130°53'4511.4
2016-Sep-16 03:33N 35°55' W 129°59'3612.0
2016-Sep-16 00:33N 36°03' W 129°16'2812.5
2016-Sep-15 22:19N 36°09' W 128°42'1212.4
2016-Sep-15 21:22N 36°11' W 128°28'1012.4
2016-Sep-15 20:33N 36°13' W 128°15'2711.7
2016-Sep-15 18:16N 36°19' W 127°43'7011.5
2016-Sep-15 12:14N 36°38' W 126°20'1111.6
2016-Sep-15 11:15N 36°42' W 126°07'7911.7
2016-Sep-15 04:33N 37°08' W 124°34'1211.7
2016-Sep-15 03:33N 37°12' W 124°20'2311.6
2016-Sep-15 01:33N 37°20' W 123°53'3010.0
2016-Sep-14 22:33N 37°30' W 123°17'10 9.5
2016-Sep-14 21:33N 37°33' W 123°06'40 9.9
2016-Sep-14 17:33N 37°48' W 122°19'0 0.3
2016-Sep-14 16:33N 37°48' W 122°19'0 0.0
2016-Sep-14 13:32N 37°48' W 122°19'0 0.0
2016-Sep-14 12:32N 37°48' W 122°19'0 0.0
2016-Sep-14 10:31N 37°48' W 122°19'0 0.0
2016-Sep-14 09:33N 37°48' W 122°19'0 0.0
2016-Sep-14 08:33N 37°48' W 122°19'0 0.0
2016-Sep-14 07:32N 37°48' W 122°19'0 0.0
2016-Sep-14 06:32N 37°48' W 122°19'0 0.0
2016-Sep-14 03:31N 37°48' W 122°19'0 0.0
2016-Sep-13 22:32N 37°48' W 122°19'0 0.0
2016-Sep-13 20:31N 37°48' W 122°19'0 0.0
2016-Sep-13 18:33N 37°48' W 122°19'0 0.0
2016-Sep-13 17:29N 37°48' W 122°19'0 0.0
2016-Sep-13 16:32N 37°48' W 122°19'3 0.7
2016-Sep-13 11:33N 37°45' W 122°21'0 0.0
2016-Sep-13 09:34N 37°45' W 122°21'0 0.0
2016-Sep-13 07:33N 37°45' W 122°21'0 0.0
2016-Sep-13 06:32N 37°45' W 122°21'0 0.1
2016-Sep-13 04:31N 37°45' W 122°21'0 0.0
2016-Sep-13 02:33N 37°45' W 122°21'2 0.8
2016-Sep-12 23:33N 37°47' W 122°22'17 8.5
2016-Sep-12 21:33N 37°38' W 122°40'20 9.8
2016-Sep-12 19:33N 37°18' W 122°40'20 9.9
2016-Sep-12 17:33N 36°59' W 122°34'5310.5
2016-Sep-12 12:30N 36°10' W 122°10'1111.3
2016-Sep-12 11:33N 36°00' W 122°05'4410.9
2016-Sep-12 07:33N 35°22' W 121°39'1110.7
2016-Sep-12 06:33N 35°13' W 121°32'3311.0
2016-Sep-12 03:33N 34°45' W 121°10'4611.0
2016-Sep-11 23:25N 34°20' W 120°24'910.8
2016-Sep-11 22:33N 34°17' W 120°13'1111.0
2016-Sep-11 21:33N 34°15' W 119°60'1211.6
2016-Sep-11 20:33N 34°11' W 119°46'1211.6
2016-Sep-11 19:33N 34°08' W 119°33'1111.4
2016-Sep-11 18:33N 34°05' W 119°20'1110.8
2016-Sep-11 17:33N 34°01' W 119°08'1111.0
2016-Sep-11 16:33N 33°55' W 118°56'1111.5
2016-Sep-11 15:33N 33°50' W 118°44'1211.8
2016-Sep-11 14:33N 33°44' W 118°32'1111.5
2016-Sep-11 13:34N 33°38' W 118°20'6 6.4
2016-Sep-11 12:33N 33°44' W 118°16'0 0.3
2016-Sep-11 11:33N 33°44' W 118°15'0 0.0
2016-Sep-11 08:31N 33°44' W 118°15'0 0.0
2016-Sep-11 07:28N 33°44' W 118°15'0 0.0
2016-Sep-11 03:32N 33°44' W 118°15'0 0.0
2016-Sep-11 02:32N 33°44' W 118°15'0 0.0
2016-Sep-11 01:31N 33°44' W 118°15'0 0.0
2016-Sep-11 00:31N 33°44' W 118°15'0 0.0
2016-Sep-10 23:33N 33°44' W 118°15'0 0.0
2016-Sep-10 22:33N 33°44' W 118°15'0 0.0
2016-Sep-10 21:32N 33°44' W 118°15'0 0.0
2016-Sep-10 20:29N 33°44' W 118°15'0 0.0
2016-Sep-10 19:32N 33°44' W 118°15'0 0.0
2016-Sep-10 18:31N 33°44' W 118°15'0 0.0
2016-Sep-10 17:31N 33°44' W 118°15'0 0.0
2016-Sep-10 16:33N 33°44' W 118°15'0 0.0
2016-Sep-10 15:30N 33°44' W 118°15'0 0.0
2016-Sep-10 14:32N 33°44' W 118°15'0 0.0
2016-Sep-10 13:32N 33°44' W 118°15'0 0.0
2016-Sep-10 12:32N 33°44' W 118°15'0 0.0
2016-Sep-10 11:31N 33°44' W 118°15'0 0.0
2016-Sep-10 10:31N 33°44' W 118°15'0 0.0
2016-Sep-10 09:33N 33°44' W 118°15'0 0.0
2016-Sep-10 08:30N 33°44' W 118°15'0 0.0
2016-Sep-10 07:32N 33°44' W 118°15'0 0.0
2016-Sep-10 06:32N 33°44' W 118°15'0 0.0
2016-Sep-10 05:32N 33°44' W 118°15'0 0.0
2016-Sep-10 04:31N 33°44' W 118°15'0 0.0
2016-Sep-10 03:31N 33°44' W 118°15'0 0.0
2016-Sep-10 02:33N 33°44' W 118°15'0 0.0
2016-Sep-10 01:33N 33°44' W 118°15'0 0.0
2016-Sep-10 00:26N 33°44' W 118°15'0 0.0
2016-Sep-09 23:20N 33°44' W 118°15'0 0.0
2016-Sep-09 21:31N 33°44' W 118°15'0 0.0
2016-Sep-09 18:30N 33°44' W 118°15'0 0.0
2016-Sep-09 16:32N 33°44' W 118°15'0 0.0
2016-Sep-09 15:10N 33°44' W 118°15'0 0.0
2016-Sep-09 10:08N 33°44' W 118°15'0 0.0
2016-Sep-09 09:32N 33°44' W 118°15'0 0.0
2016-Sep-09 08:31N 33°44' W 118°15'0 0.0
2016-Sep-09 07:25N 33°44' W 118°15'0 0.0
2016-Sep-08 20:26N 33°44' W 118°15'0 0.0
2016-Sep-08 18:25N 33°44' W 118°15'0 0.0
2016-Sep-08 12:32N 33°44' W 118°15'0 0.5
2016-Sep-08 11:32N 33°43' W 118°16'5 5.0
2016-Sep-08 10:33N 33°39' W 118°13'8 7.8
2016-Sep-08 09:33N 33°37' W 118°22'9 8.6
2016-Sep-08 08:33N 33°41' W 118°31'1310.9
2016-Sep-08 07:23N 33°47' W 118°45'1011.4
2016-Sep-08 06:31N 33°52' W 118°55'2311.5
2016-Sep-08 04:33N 34°03' W 119°19'1111.3
2016-Sep-08 03:33N 34°06' W 119°32'1211.6
2016-Sep-08 02:33N 34°09' W 119°45'1211.6
2016-Sep-08 01:33N 34°12' W 119°59'1411.6
2016-Sep-08 00:18N 34°16' W 120°16'2011.4
2016-Sep-07 22:33N 34°21' W 120°39'1111.2
2016-Sep-07 21:33N 34°24' W 120°52'1211.7
2016-Sep-07 20:30N 34°24' W 121°07'1515.5
2016-Sep-07 19:34N 34°24' W 121°25'4319.7
2016-Sep-07 17:22N 34°24' W 122°17'1820.1
2016-Sep-07 16:29N 34°24' W 122°39'1819.4
2016-Sep-07 15:33N 34°24' W 123°01'7719.2
2016-Sep-07 11:33N 34°24' W 124°34'1918.8
2016-Sep-07 10:33N 34°24' W 124°56'11719.1
2016-Sep-07 04:26N 35°20' W 127°02'  
Track history (hours):
 
Tides and Currents Weather Stations Pressure Air Temp Water Temp Dewpoint Dewpoint Depression Visibility Wind Speed Wind Dir Waves Ship Positions

CMA CGM Thalassa

Last reported at 2016-Sep-17 04:15 UTC. Time now 2016-Sep-29 23:49 UTC.
Position N 34°57' W 135°51'.
Warning: this ship's position is 12 days out of date.

Length 347 m; draft 10.7 m.

Type: Ship (hazmat cat A). MMSI: 212151000.

Date/timePositionNaut miles runAvg speedWind from/ knotsBaromVisibWave heightAir tempDewpointWater temp
2016-Sep-17 04:15N 34°57' W 135°51'16112.5
2016-Sep-16 15:18N 35°26' W 132°37'6411.1
2016-Sep-16 09:33N 35°40' W 131°21'2311.1
2016-Sep-16 07:27N 35°45' W 130°53'4511.4
2016-Sep-16 03:33N 35°55' W 129°59'3612.0
2016-Sep-16 00:33N 36°03' W 129°16'2812.5
2016-Sep-15 22:19N 36°09' W 128°42'1212.4
2016-Sep-15 21:22N 36°11' W 128°28'1012.4
2016-Sep-15 20:33N 36°13' W 128°15'2711.7
2016-Sep-15 18:16N 36°19' W 127°43'7011.5
2016-Sep-15 12:14N 36°38' W 126°20'1111.6
2016-Sep-15 11:15N 36°42' W 126°07'7911.7
2016-Sep-15 04:33N 37°08' W 124°34'1211.7
2016-Sep-15 03:33N 37°12' W 124°20'2311.6
2016-Sep-15 01:33N 37°20' W 123°53'3010.0
2016-Sep-14 22:33N 37°30' W 123°17'10 9.5
2016-Sep-14 21:33N 37°33' W 123°06'40 9.9
2016-Sep-14 17:33N 37°48' W 122°19'0 0.3
2016-Sep-14 16:33N 37°48' W 122°19'0 0.0
2016-Sep-14 13:32N 37°48' W 122°19'0 0.0
2016-Sep-14 12:32N 37°48' W 122°19'0 0.0
2016-Sep-14 10:31N 37°48' W 122°19'0 0.0
2016-Sep-14 09:33N 37°48' W 122°19'0 0.0
2016-Sep-14 08:33N 37°48' W 122°19'0 0.0
2016-Sep-14 07:32N 37°48' W 122°19'0 0.0
2016-Sep-14 06:32N 37°48' W 122°19'0 0.0
2016-Sep-14 03:31N 37°48' W 122°19'0 0.0
2016-Sep-13 22:32N 37°48' W 122°19'0 0.0
2016-Sep-13 20:31N 37°48' W 122°19'0 0.0
2016-Sep-13 18:33N 37°48' W 122°19'0 0.0
2016-Sep-13 17:29N 37°48' W 122°19'0 0.0
2016-Sep-13 16:32N 37°48' W 122°19'3 0.7
2016-Sep-13 11:33N 37°45' W 122°21'0 0.0
2016-Sep-13 09:34N 37°45' W 122°21'0 0.0
2016-Sep-13 07:33N 37°45' W 122°21'0 0.0
2016-Sep-13 06:32N 37°45' W 122°21'0 0.1
2016-Sep-13 04:31N 37°45' W 122°21'0 0.0
2016-Sep-13 02:33N 37°45' W 122°21'2 0.8
2016-Sep-12 23:33N 37°47' W 122°22'17 8.5
2016-Sep-12 21:33N 37°38' W 122°40'20 9.8
2016-Sep-12 19:33N 37°18' W 122°40'20 9.9
2016-Sep-12 17:33N 36°59' W 122°34'5310.5
2016-Sep-12 12:30N 36°10' W 122°10'1111.3
2016-Sep-12 11:33N 36°00' W 122°05'4410.9
2016-Sep-12 07:33N 35°22' W 121°39'1110.7
2016-Sep-12 06:33N 35°13' W 121°32'3311.0
2016-Sep-12 03:33N 34°45' W 121°10'4611.0
2016-Sep-11 23:25N 34°20' W 120°24'910.8
2016-Sep-11 22:33N 34°17' W 120°13'1111.0
2016-Sep-11 21:33N 34°15' W 119°60'1211.6
2016-Sep-11 20:33N 34°11' W 119°46'1211.6
2016-Sep-11 19:33N 34°08' W 119°33'1111.4
2016-Sep-11 18:33N 34°05' W 119°20'1110.8
2016-Sep-11 17:33N 34°01' W 119°08'1111.0
2016-Sep-11 16:33N 33°55' W 118°56'1111.5
2016-Sep-11 15:33N 33°50' W 118°44'1211.8
2016-Sep-11 14:33N 33°44' W 118°32'1111.5
2016-Sep-11 13:34N 33°38' W 118°20'6 6.4
2016-Sep-11 12:33N 33°44' W 118°16'0 0.3
2016-Sep-11 11:33N 33°44' W 118°15'0 0.0
2016-Sep-11 08:31N 33°44' W 118°15'0 0.0
2016-Sep-11 07:28N 33°44' W 118°15'0 0.0
2016-Sep-11 03:32N 33°44' W 118°15'0 0.0
2016-Sep-11 02:32N 33°44' W 118°15'0 0.0
2016-Sep-11 01:31N 33°44' W 118°15'0 0.0
2016-Sep-11 00:31N 33°44' W 118°15'0 0.0
2016-Sep-10 23:33N 33°44' W 118°15'0 0.0
2016-Sep-10 22:33N 33°44' W 118°15'0 0.0
2016-Sep-10 21:32N 33°44' W 118°15'0 0.0
2016-Sep-10 20:29N 33°44' W 118°15'0 0.0
2016-Sep-10 19:32N 33°44' W 118°15'0 0.0
2016-Sep-10 18:31N 33°44' W 118°15'0 0.0
2016-Sep-10 17:31N 33°44' W 118°15'0 0.0
2016-Sep-10 16:33N 33°44' W 118°15'0 0.0
2016-Sep-10 15:30N 33°44' W 118°15'0 0.0
2016-Sep-10 14:32N 33°44' W 118°15'0 0.0
2016-Sep-10 13:32N 33°44' W 118°15'0 0.0
2016-Sep-10 12:32N 33°44' W 118°15'0 0.0
2016-Sep-10 11:31N 33°44' W 118°15'0 0.0
2016-Sep-10 10:31N 33°44' W 118°15'0 0.0
2016-Sep-10 09:33N 33°44' W 118°15'0 0.0
2016-Sep-10 08:30N 33°44' W 118°15'0 0.0
2016-Sep-10 07:32N 33°44' W 118°15'0 0.0
2016-Sep-10 06:32N 33°44' W 118°15'0 0.0
2016-Sep-10 05:32N 33°44' W 118°15'0 0.0
2016-Sep-10 04:31N 33°44' W 118°15'0 0.0
2016-Sep-10 03:31N 33°44' W 118°15'0 0.0
2016-Sep-10 02:33N 33°44' W 118°15'0 0.0
2016-Sep-10 01:33N 33°44' W 118°15'0 0.0
2016-Sep-10 00:26N 33°44' W 118°15'0 0.0
2016-Sep-09 23:20N 33°44' W 118°15'0 0.0
2016-Sep-09 21:31N 33°44' W 118°15'0 0.0
2016-Sep-09 18:30N 33°44' W 118°15'0 0.0
2016-Sep-09 16:32N 33°44' W 118°15'0 0.0
2016-Sep-09 15:10N 33°44' W 118°15'0 0.0
2016-Sep-09 10:08N 33°44' W 118°15'0 0.0
2016-Sep-09 09:32N 33°44' W 118°15'0 0.0
2016-Sep-09 08:31N 33°44' W 118°15'0 0.0
2016-Sep-09 07:25N 33°44' W 118°15'0 0.0
2016-Sep-08 20:26N 33°44' W 118°15'0 0.0
2016-Sep-08 18:25N 33°44' W 118°15'0 0.0
2016-Sep-08 12:32N 33°44' W 118°15'0 0.5
2016-Sep-08 11:32N 33°43' W 118°16'5 5.0
2016-Sep-08 10:33N 33°39' W 118°13'8 7.8
2016-Sep-08 09:33N 33°37' W 118°22'9 8.6
2016-Sep-08 08:33N 33°41' W 118°31'1310.9
2016-Sep-08 07:23N 33°47' W 118°45'1011.4
2016-Sep-08 06:31N 33°52' W 118°55'2311.5
2016-Sep-08 04:33N 34°03' W 119°19'1111.3
2016-Sep-08 03:33N 34°06' W 119°32'1211.6
2016-Sep-08 02:33N 34°09' W 119°45'1211.6
2016-Sep-08 01:33N 34°12' W 119°59'1411.6
2016-Sep-08 00:18N 34°16' W 120°16'2011.4
2016-Sep-07 22:33N 34°21' W 120°39'1111.2
2016-Sep-07 21:33N 34°24' W 120°52'1211.7
2016-Sep-07 20:30N 34°24' W 121°07'1515.5
2016-Sep-07 19:34N 34°24' W 121°25'4319.7
2016-Sep-07 17:22N 34°24' W 122°17'1820.1
2016-Sep-07 16:29N 34°24' W 122°39'1819.4
2016-Sep-07 15:33N 34°24' W 123°01'7719.2
2016-Sep-07 11:33N 34°24' W 124°34'1918.8
2016-Sep-07 10:33N 34°24' W 124°56'11719.1
2016-Sep-07 04:26N 35°20' W 127°02'  

Dump ship's entire track history